Time;durP1;ratioP1;P1;durP2;ratioP2;P2;SDS_P1;SDS_P2;PMS_P1;PMS_P2;Temp;Humidity;BMP_temperature;BMP_pressure;BME280_temperature;BME280_humidity;BME280_pressure;Samples;Min_cycle;Max_cycle;Signal;HPM_P1;HPM_P2
2022/03/04 00:00:54;;;;;;;25.90;15.77;;;;;;;-146.64;89.21;39841.28;5060849;28;20033;-74
2022/03/04 00:03:19;;;;;;;26.05;16.17;;;;;;;-146.64;88.64;39876.09;5062038;28;20518;-75
2022/03/04 00:05:45;;;;;;;28.60;15.40;;;;;;;-146.64;88.99;39839.25;5045151;28;20024;-75
2022/03/04 00:08:10;;;;;;;25.17;15.07;;;;;;;-146.64;89.66;39890.41;5078078;28;20037;-75
2022/03/04 00:10:36;;;;;;;27.50;14.93;;;;;;;-146.64;89.60;39882.22;5043386;28;20468;-75
2022/03/04 00:13:01;;;;;;;25.63;14.98;;;;;;;-146.64;89.13;39843.34;5060891;28;20028;-75
2022/03/04 00:15:27;;;;;;;24.38;14.93;;;;;;;-146.64;89.61;39865.84;5061430;28;20020;-75
2022/03/04 00:17:53;;;;;;;22.80;14.43;;;;;;;-146.64;90.40;39874.03;5078193;28;20028;-75
2022/03/04 00:20:18;;;;;;;25.08;15.18;;;;;;;-146.64;90.52;39908.84;5078220;28;20024;-75
2022/03/04 00:22:46;;;;;;;29.42;15.90;;;;;;;-146.64;91.50;39947.72;5060080;28;20068;-75
2022/03/04 00:25:12;;;;;;;25.67;16.63;;;;;;;-146.64;90.45;39912.94;5044937;28;20116;-74
2022/03/04 00:27:37;;;;;;;33.33;16.15;;;;;;;-146.64;90.95;39927.25;5078685;28;20020;-75
2022/03/04 00:30:04;;;;;;;26.05;15.45;;;;;;;-146.64;92.75;39960.00;5061490;28;20032;-75
2022/03/04 00:32:29;;;;;;;25.60;15.15;;;;;;;-146.64;93.26;39984.56;5043838;28;20040;-76
2022/03/04 00:34:55;;;;;;;25.10;15.05;;;;;;;-146.64;93.60;39982.53;5041999;28;20048;-75
2022/03/04 00:37:20;;;;;;;24.50;14.45;;;;;;;-146.64;93.22;39970.25;5061414;28;20044;-74
2022/03/04 00:39:46;;;;;;;30.27;16.40;;;;;;;-146.64;93.51;39970.25;5060317;28;20103;-75
2022/03/04 00:42:11;;;;;;;28.42;15.13;;;;;;;-146.64;94.95;40003.00;5060098;28;20030;-74
2022/03/04 00:44:37;;;;;;;27.52;16.45;;;;;;;-146.64;94.56;40009.13;5061698;28;20020;-74
2022/03/04 00:47:04;;;;;;;27.45;16.50;;;;;;;-146.64;95.65;40045.97;5060637;28;20020;-75
2022/03/04 00:49:29;;;;;;;;;;;;;;;-146.64;95.87;40017.31;5079163;28;20052;-74
2022/03/04 00:51:54;;;;;;;30.02;14.40;;;;;;;-146.64;96.65;40025.50;5060003;28;20338;-74
2022/03/04 00:54:20;;;;;;;23.60;14.85;;;;;;;-146.64;96.96;40054.16;5061542;28;20024;-75
2022/03/04 00:56:45;;;;;;;25.83;14.80;;;;;;;-146.64;98.26;40113.53;5079110;28;20039;-75
2022/03/04 00:59:10;;;;;;;26.77;15.40;;;;;;;-146.64;97.89;40070.53;5043802;28;20047;-75
2022/03/04 01:01:36;;;;;;;25.52;15.27;;;;;;;-146.64;98.59;40068.50;5078598;28;20049;-74
2022/03/04 01:04:03;;;;;;;26.25;15.27;;;;;;;-146.64;99.22;40082.81;5060643;28;20032;-75
2022/03/04 01:06:28;;;;;;;28.38;15.43;;;;;;;-146.64;99.94;40107.38;5044410;28;20032;-75
2022/03/04 01:08:54;;;;;;;26.38;16.08;;;;;;;-146.64;100.00;40111.47;5057919;28;20035;-75
2022/03/04 01:11:19;;;;;;;25.23;15.35;;;;;;;-146.64;100.00;40160.63;5052780;28;20020;-74
2022/03/04 01:13:45;;;;;;;36.30;15.82;;;;;;;-146.64;100.00;40148.31;5078092;28;20029;-75
2022/03/04 01:16:10;;;;;;;25.70;15.02;;;;;;;-146.64;100.00;40111.47;5048582;28;20116;-74
2022/03/04 01:18:36;;;;;;;26.33;15.90;;;;;;;-146.64;100.00;40086.91;5036961;28;20388;-75
2022/03/04 01:21:01;;;;;;;26.45;15.15;;;;;;;-146.64;100.00;40123.75;5059947;28;20020;-74
2022/03/04 01:23:26;;;;;;;24.55;15.50;;;;;;;-146.64;100.00;40162.66;5039867;28;20395;-75
2022/03/04 01:25:52;;;;;;;30.67;16.23;;;;;;;-146.64;100.00;40160.63;5056911;28;20136;-75
2022/03/04 01:28:21;;;;;;;27.80;15.75;;;;;;;-146.64;100.00;40172.91;5057336;28;20204;-75
2022/03/04 01:30:47;;;;;;;31.45;15.55;;;;;;;-146.64;100.00;40172.91;5057798;28;20071;-75
2022/03/04 01:33:13;;;;;;;26.50;14.63;;;;;;;-146.64;100.00;40144.22;5038216;28;20033;-75
2022/03/04 01:35:38;;;;;;;27.38;15.40;;;;;;;-146.64;100.00;40203.59;5047530;28;20021;-75
2022/03/04 01:38:04;;;;;;;28.58;15.57;;;;;;;-146.64;100.00;40164.72;5056937;28;20033;-74
2022/03/04 01:40:29;;;;;;;24.95;15.07;;;;;;;-146.64;100.00;40201.56;5056462;28;20017;-75
2022/03/04 01:42:55;;;;;;;24.08;14.57;;;;;;;-146.64;100.00;40250.69;5054668;28;20024;-74
2022/03/04 01:45:20;;;;;;;26.35;15.75;;;;;;;-146.64;100.00;40217.94;5056092;28;20505;-75
2022/03/04 01:47:46;;;;;;;41.88;15.23;;;;;;;-146.64;100.00;40222.03;5037474;28;20033;-75
2022/03/04 01:50:11;;;;;;;26.00;15.20;;;;;;;-146.64;100.00;40238.41;5048900;28;20048;-75
2022/03/04 01:52:37;;;;;;;26.95;15.93;;;;;;;-146.64;100.00;40246.59;5055607;28;20049;-74
2022/03/04 01:55:04;;;;;;;30.27;15.85;;;;;;;-146.64;100.00;40203.59;5053874;28;20029;-75
2022/03/04 01:57:29;;;;;;;27.88;15.93;;;;;;;-146.64;100.00;40222.03;5035863;28;20140;-75
2022/03/04 01:59:55;;;;;;;25.15;15.15;;;;;;;-146.64;100.00;40291.63;5039217;28;20123;-75
2022/03/04 02:02:20;;;;;;;25.10;15.65;;;;;;;-146.64;100.00;40303.91;5055928;28;20025;-75
2022/03/04 02:04:49;;;;;;;29.23;15.35;;;;;;;-146.64;100.00;40254.78;5055762;28;20044;-75
2022/03/04 02:07:14;;;;;;;24.80;15.57;;;;;;;-146.64;100.00;40260.91;5056309;28;20040;-74
2022/03/04 02:09:40;;;;;;;25.90;15.93;;;;;;;-146.64;100.00;40213.84;5054595;28;20029;-75
2022/03/04 02:12:05;;;;;;;26.05;15.13;;;;;;;-146.64;100.00;40308.00;5055340;28;20047;-75
2022/03/04 02:14:31;;;;;;;25.30;14.85;;;;;;;-146.64;100.00;40361.22;5039462;28;20033;-74
2022/03/04 02:16:57;;;;;;;33.50;16.35;;;;;;;-146.64;100.00;40351.00;5056643;28;20029;-74
2022/03/04 02:19:23;;;;;;;28.25;14.40;;;;;;;-146.64;100.00;40377.59;5047093;28;20025;-74
2022/03/04 02:21:55;;;;;;;29.45;15.63;;;;;;;-146.64;100.00;40295.72;5035163;28;20029;-74
2022/03/04 02:24:22;;;;;;;23.35;14.05;;;;;;;-146.64;100.00;40312.09;5077099;28;20032;-75
2022/03/04 02:26:48;;;;;;;26.60;15.00;;;;;;;-146.64;100.00;40303.91;5042606;28;20028;-75
2022/03/04 02:29:13;;;;;;;24.52;15.05;;;;;;;-146.64;100.00;40299.81;5074794;28;20042;-74
2022/03/04 02:31:39;;;;;;;28.95;15.63;;;;;;;-146.64;100.00;40271.16;5035804;28;20039;-74
2022/03/04 02:34:05;;;;;;;28.52;15.52;;;;;;;-146.64;100.00;40275.25;5042327;28;20032;-75
2022/03/04 02:36:30;;;;;;;25.67;16.20;;;;;;;-146.64;100.00;40228.16;5057619;28;20029;-74
2022/03/04 02:38:55;;;;;;;24.38;14.55;;;;;;;-146.64;100.00;40250.69;5056749;28;20440;-74
2022/03/04 02:41:21;;;;;;;26.48;15.30;;;;;;;-146.64;100.00;40281.38;5058848;28;20111;-75
2022/03/04 02:43:46;;;;;;;25.58;15.15;;;;;;;-146.64;100.00;40308.00;5048520;28;20484;-75
2022/03/04 02:46:15;;;;;;;29.73;15.90;;;;;;;-146.64;100.00;40236.34;5079326;28;20032;-74
2022/03/04 02:48:41;;;;;;;31.70;15.63;;;;;;;-146.64;100.00;40193.38;5068911;28;20016;-74
2022/03/04 02:51:06;;;;;;;24.40;14.93;;;;;;;-146.64;100.00;40201.56;5061850;28;20025;-74
2022/03/04 02:53:32;;;;;;;26.98;14.65;;;;;;;-146.64;100.00;40219.97;5062823;28;20021;-74
2022/03/04 02:55:57;;;;;;;27.45;15.40;;;;;;;-146.64;100.00;40238.41;5080498;28;20580;-74
2022/03/04 02:58:23;;;;;;;26.20;15.07;;;;;;;-146.64;100.00;40219.97;5062401;28;20078;-75
2022/03/04 03:00:48;;;;;;;26.23;14.65;;;;;;;-146.64;100.00;40203.59;5064053;28;20024;-74
2022/03/04 03:03:14;;;;;;;28.67;15.10;;;;;;;-146.64;100.00;40193.38;5062910;28;20082;-74
2022/03/04 03:05:39;;;;;;;23.95;15.15;;;;;;;-146.64;100.00;40213.84;5061058;28;20035;-74
2022/03/04 03:08:05;;;;;;;31.02;16.17;;;;;;;-146.64;100.00;40244.53;5062508;28;20098;-74
2022/03/04 03:10:32;;;;;;;31.77;15.60;;;;;;;-146.64;100.00;40217.94;5042425;28;20131;-74
2022/03/04 03:12:57;;;;;;;25.15;14.65;;;;;;;-146.64;100.00;40273.19;5053647;28;20028;-74
2022/03/04 03:15:23;;;;;;;24.02;15.23;;;;;;;-146.64;100.00;40303.91;5077429;28;20468;-74
2022/03/04 03:17:48;;;;;;;27.65;16.40;;;;;;;-146.64;100.00;40316.19;5056796;28;20058;-75
2022/03/04 03:20:14;;;;;;;33.75;15.93;;;;;;;-146.64;100.00;40262.97;5061359;28;20036;-74
2022/03/04 03:22:39;;;;;;;32.25;14.93;;;;;;;-146.64;100.00;40246.59;5060684;28;20092;-74
2022/03/04 03:25:05;;;;;;;26.67;15.20;;;;;;;-146.64;100.00;40271.16;5062483;28;20038;-75
2022/03/04 03:27:30;;;;;;;26.42;14.65;;;;;;;-146.64;100.00;40293.66;5078892;28;20409;-75
2022/03/04 03:29:56;;;;;;;24.33;15.23;;;;;;;-146.64;100.00;40316.19;5061325;28;20363;-74
2022/03/04 03:32:21;;;;;;;28.60;16.05;;;;;;;-146.64;100.00;40340.75;5061762;28;20032;-74
2022/03/04 03:34:47;;;;;;;25.02;14.65;;;;;;;-146.64;100.00;40330.53;5079831;28;20029;-74
2022/03/04 03:37:12;;;;;;;29.92;15.38;;;;;;;-146.64;100.00;40402.16;5060684;28;20103;-75
2022/03/04 03:39:38;;;;;;;28.23;15.98;;;;;;;-146.64;100.00;40381.69;5078473;28;20032;-74
2022/03/04 03:42:05;;;;;;;28.95;15.90;;;;;;;-146.64;100.00;40385.78;5061630;28;20077;-74
2022/03/04 03:44:30;;;;;;;26.67;16.17;;;;;;;-146.64;100.00;40428.78;5060164;28;20059;-74
2022/03/04 03:46:56;;;;;;;31.05;16.63;;;;;;;-146.64;100.00;40422.63;5040618;28;20171;-74
2022/03/04 03:49:22;;;;;;;29.67;17.08;;;;;;;-146.64;100.00;40432.88;5035468;28;20051;-74
2022/03/04 03:51:48;;;;;;;30.65;17.30;;;;;;;-146.64;100.00;40459.50;5060125;28;20111;-74
2022/03/04 03:54:14;;;;;;;31.90;17.02;;;;;;;-146.64;100.00;40461.53;5077853;28;20029;-75
2022/03/04 03:56:39;;;;;;;30.02;16.13;;;;;;;-146.64;100.00;40506.56;5059727;28;20051;-75
2022/03/04 03:59:04;;;;;;;29.70;16.70;;;;;;;-146.64;100.00;40529.09;5060244;28;20027;-74
2022/03/04 04:01:30;;;;;;;26.65;15.02;;;;;;;-146.64;100.00;40535.25;5041236;28;20128;-75
2022/03/04 04:03:55;;;;;;;30.60;15.60;;;;;;;-146.64;100.00;40512.72;5043824;28;20021;-74
2022/03/04 04:06:21;;;;;;;32.33;16.60;;;;;;;-146.64;100.00;40563.91;5058643;28;20021;-74
2022/03/04 04:08:46;;;;;;;31.52;16.15;;;;;;;-146.64;100.00;40617.13;5060563;28;20104;-74
2022/03/04 04:11:12;;;;;;;32.80;16.10;;;;;;;-146.64;100.00;40645.78;5077824;28;20123;-75
2022/03/04 04:13:38;;;;;;;30.05;16.23;;;;;;;-146.64;100.00;40613.03;5060463;28;20028;-74
2022/03/04 04:16:03;;;;;;;29.05;17.00;;;;;;;-146.64;100.00;40610.97;5059571;28;20082;-74
2022/03/04 04:18:29;;;;;;;34.40;17.75;;;;;;;-146.64;100.00;40631.47;5050057;28;20096;-75
2022/03/04 04:20:57;;;;;;;29.35;17.30;;;;;;;-146.64;100.00;40656.03;5077256;28;20036;-74
2022/03/04 04:23:23;;;;;;;29.13;17.05;;;;;;;-146.64;100.00;40664.22;5057845;28;20127;-74
2022/03/04 04:25:48;;;;;;;26.27;16.55;;;;;;;-146.64;100.00;40701.06;5043086;28;20512;-74
2022/03/04 04:28:14;;;;;;;27.38;15.63;;;;;;;-146.64;100.00;40635.56;5073983;28;20036;-74
2022/03/04 04:30:39;;;;;;;31.25;17.90;;;;;;;-146.64;100.00;40715.41;5076613;28;20391;-75
2022/03/04 04:33:05;;;;;;;32.38;17.85;;;;;;;-146.64;100.00;40729.72;5059986;28;20024;-74
2022/03/04 04:35:30;;;;;;;29.05;16.70;;;;;;;-146.64;100.00;40750.19;5077196;28;20364;-75
2022/03/04 04:37:56;;;;;;;29.92;17.23;;;;;;;-146.64;100.00;40760.44;5057519;28;20028;-75
2022/03/04 04:40:22;;;;;;;27.65;17.08;;;;;;;-146.64;100.00;40754.28;5036778;28;20119;-74
2022/03/04 04:42:47;;;;;;;32.50;17.40;;;;;;;-146.64;100.00;40754.28;5056221;28;20084;-75
2022/03/04 04:45:12;;;;;;;34.53;17.55;;;;;;;-146.64;100.00;40811.63;5056329;28;20039;-75
2022/03/04 04:47:38;;;;;;;32.80;18.10;;;;;;;-146.64;100.00;40801.38;5049577;28;20479;-75
2022/03/04 04:50:04;;;;;;;31.63;17.33;;;;;;;-146.64;100.00;40782.97;5043733;28;20051;-73
2022/03/04 04:52:30;;;;;;;28.92;17.45;;;;;;;-146.64;100.00;40811.63;5055278;28;20105;-74
2022/03/04 04:54:55;;;;;;;31.48;17.25;;;;;;;-146.64;100.00;40737.91;5056031;28;20036;-74
2022/03/04 04:57:21;;;;;;;28.33;16.42;;;;;;;-146.64;100.00;40721.53;5073424;28;20028;-73
2022/03/04 04:59:46;;;;;;;31.02;17.98;;;;;;;-146.64;100.00;40750.19;5073576;28;20505;-74
2022/03/04 05:02:11;;;;;;;33.17;17.35;;;;;;;-146.64;100.00;40742.00;5054230;28;20028;-74
2022/03/04 05:04:37;;;;;;;34.50;17.42;;;;;;;-146.64;100.00;40725.63;5052352;28;20496;-74
2022/03/04 05:07:03;;;;;;;32.50;18.65;;;;;;;-146.64;100.00;40791.16;5054440;28;20035;-74
2022/03/04 05:09:28;;;;;;;32.95;17.52;;;;;;;-146.64;100.00;40785.00;5052826;28;20036;-75
2022/03/04 05:11:54;;;;;;;33.63;17.80;;;;;;;-146.64;100.00;40805.47;5054484;28;20025;-75
2022/03/04 05:14:19;;;;;;;32.13;17.42;;;;;;;-146.64;100.00;40758.38;5040083;28;20513;-74
2022/03/04 05:16:44;;;;;;;33.53;17.48;;;;;;;-146.64;100.00;40742.00;5055131;28;20148;-74
2022/03/04 05:19:10;;;;;;;38.88;17.98;;;;;;;-146.64;100.00;40860.75;5053991;28;20033;-74
2022/03/04 05:21:35;;;;;;;35.60;18.40;;;;;;;-146.64;100.00;40807.53;5072082;28;20016;-74
2022/03/04 05:24:06;;;;;;;29.83;17.48;;;;;;;-146.64;100.00;40815.72;5071745;28;20076;-74
2022/03/04 05:26:36;;;;;;;30.83;18.13;;;;;;;-146.64;100.00;40873.03;5068878;28;20056;-73
2022/03/04 05:29:04;;;;;;;34.53;18.23;;;;;;;-146.64;100.00;40897.63;5036021;28;20036;-74
2022/03/04 05:31:29;;;;;;;32.67;18.48;;;;;;;-146.64;100.00;40911.94;5034307;28;20115;-75
2022/03/04 05:33:55;;;;;;;33.90;18.95;;;;;;;-146.64;100.00;40864.84;5051229;28;20062;-74
2022/03/04 05:36:21;;;;;;;40.22;18.88;;;;;;;-146.64;100.00;40959.03;5036161;28;20029;-74
2022/03/04 05:38:48;;;;;;;33.13;17.58;;;;;;;-146.64;100.00;40930.38;5053556;28;20047;-74
2022/03/04 05:41:14;;;;;;;30.67;17.48;;;;;;;-146.64;100.00;40977.47;5072004;28;20024;-74
2022/03/04 05:43:39;;;;;;;35.08;17.90;;;;;;;-146.64;100.00;41065.50;5054391;28;20154;-73
2022/03/04 05:46:06;;;;;;;36.72;19.30;;;;;;;-146.64;100.00;41028.66;5049169;28;20112;-74
2022/03/04 05:48:31;;;;;;;31.63;18.33;;;;;;;-146.64;100.00;41049.13;5054000;28;20459;-74
2022/03/04 05:50:57;;;;;;;32.53;18.35;;;;;;;-146.64;100.00;41112.59;5052946;28;20356;-73
2022/03/04 05:53:22;;;;;;;33.95;18.60;;;;;;;-146.64;100.00;41155.59;5053477;28;20028;-73
2022/03/04 05:55:48;;;;;;;33.45;18.90;;;;;;;-146.64;100.00;41208.84;5071343;28;20021;-74
2022/03/04 05:58:13;;;;;;;36.35;18.48;;;;;;;-146.64;100.00;41272.31;5053004;28;20500;-74
2022/03/04 06:00:40;;;;;;;35.92;18.08;;;;;;;-146.64;100.00;41282.53;5054109;28;20023;-74
2022/03/04 06:03:07;;;;;;;36.40;19.33;;;;;;;-146.64;100.00;41319.41;5073854;28;20475;-73
2022/03/04 06:05:33;;;;;;;33.17;19.95;;;;;;;-146.64;100.00;41376.75;5053325;28;20064;-73
2022/03/04 06:07:58;;;;;;;35.15;18.73;;;;;;;-146.64;100.00;41434.06;5053281;28;20043;-74
2022/03/04 06:10:23;;;;;;;34.30;18.95;;;;;;;-146.64;100.00;41460.69;5053932;28;20075;-73
2022/03/04 06:12:49;;;;;;;34.45;20.25;;;;;;;-146.64;100.00;41464.78;5069447;28;20178;-73
2022/03/04 06:15:14;;;;;;;36.58;19.80;;;;;;;-146.64;100.00;41515.97;5038096;28;20058;-73
2022/03/04 06:17:46;;;;;;;33.25;17.75;;;;;;;-146.64;100.00;41499.59;5074535;28;20206;-74
2022/03/04 06:20:11;;;;;;;37.60;19.17;;;;;;;-146.64;100.00;41604.03;5075518;28;20036;-75
2022/03/04 06:22:37;;;;;;;37.53;19.90;;;;;;;-146.64;100.00;41552.84;5075232;28;20075;-74
2022/03/04 06:25:03;;;;;;;34.45;18.83;;;;;;;-146.64;100.00;41587.66;5056461;28;20028;-74
2022/03/04 06:27:28;;;;;;;34.90;18.88;;;;;;;-146.64;100.00;41538.50;5057517;28;20553;-74
2022/03/04 06:29:54;;;;;;;31.63;18.45;;;;;;;-146.64;100.00;41602.00;5057382;28;20048;-74
2022/03/04 06:32:19;;;;;;;35.28;19.10;;;;;;;-146.64;100.00;41589.69;5075067;28;20063;-73
2022/03/04 06:34:44;;;;;;;36.97;19.83;;;;;;;-146.64;100.00;41503.69;5068316;28;20031;-73
2022/03/04 06:37:12;;;;;;;31.95;18.98;;;;;;;-146.64;100.00;41466.84;5071973;28;20074;-74
2022/03/04 06:39:37;;;;;;;37.13;20.83;;;;;;;-146.64;100.00;41505.75;5056621;28;20064;-73
2022/03/04 06:42:03;;;;;;;35.97;20.90;;;;;;;-146.64;100.00;41528.28;5057057;28;20055;-73
2022/03/04 06:44:29;;;;;;;36.65;19.90;;;;;;;-146.64;100.00;41432.03;5054592;28;20052;-74
2022/03/04 06:46:54;;;;;;;37.08;19.83;;;;;;;-146.64;100.00;41483.22;5040771;28;20028;-73
2022/03/04 06:49:20;;;;;;;38.25;20.27;;;;;;;-146.64;100.00;41511.88;5075582;28;20056;-73
2022/03/04 06:51:45;;;;;;;34.97;19.63;;;;;;;-146.64;100.00;41483.22;5074723;28;20056;-74
2022/03/04 06:54:10;;;;;;;37.17;20.10;;;;;;;-146.64;100.00;41462.75;5037416;28;20056;-73
2022/03/04 06:56:36;;;;;;;38.42;20.55;;;;;;;-146.64;100.00;41399.25;5047415;28;20016;-73
2022/03/04 06:59:01;;;;;;;37.08;20.10;;;;;;;-146.64;100.00;41423.84;5059532;28;20093;-73
2022/03/04 07:01:27;;;;;;;37.80;20.20;;;;;;;-146.64;100.00;41407.44;5074538;28;20043;-73
2022/03/04 07:03:52;;;;;;;39.72;20.15;;;;;;;-146.64;100.00;41374.69;5057230;28;20021;-73
2022/03/04 07:06:18;;;;;;;42.13;20.58;;;;;;;-146.64;100.00;41274.34;5057171;28;20020;-75
2022/03/04 07:08:44;;;;;;;31.25;19.13;;;;;;;-146.64;100.00;41167.88;5074775;28;20454;-74
2022/03/04 07:11:09;;;;;;;43.80;20.50;;;;;;;-146.64;100.00;41200.66;5056891;28;20115;-73
2022/03/04 07:13:35;;;;;;;38.13;20.40;;;;;;;-146.64;100.00;41176.06;5054303;28;20463;-74
2022/03/04 07:16:01;;;;;;;39.22;21.20;;;;;;;-146.64;100.00;41120.78;5073527;28;20100;-73
2022/03/04 07:18:29;;;;;;;35.33;20.25;;;;;;;-146.64;100.00;41026.59;5046569;28;20497;-73
2022/03/04 07:21:04;;;;;;;34.30;20.65;;;;;;;-146.64;100.00;40999.97;5075215;28;20032;-73
2022/03/04 07:23:29;;;;;;;37.42;19.98;;;;;;;-146.64;100.00;40981.56;5073926;28;20049;-74
2022/03/04 07:25:55;;;;;;;37.10;20.58;;;;;;;-146.64;100.00;40946.75;5074749;28;20536;-74
2022/03/04 07:28:20;;;;;;;39.03;20.85;;;;;;;-146.64;100.00;40873.03;5055638;28;20036;-73
2022/03/04 07:30:45;;;;;;;36.83;20.10;;;;;;;-146.64;100.00;40803.44;5072330;28;20025;-73
2022/03/04 07:33:11;;;;;;;40.80;21.30;;;;;;;-146.64;100.00;40742.00;5039372;28;20021;-73
2022/03/04 07:35:41;;;;;;;33.58;19.48;;;;;;;-146.64;100.00;40668.31;5073281;28;20033;-74
2022/03/04 07:38:07;;;;;;;40.47;21.02;;;;;;;-146.64;100.00;40664.22;5038447;28;20061;-74
2022/03/04 07:40:32;;;;;;;43.70;20.40;;;;;;;-146.64;100.00;40580.28;5055177;28;20456;-74
2022/03/04 07:42:58;;;;;;;38.60;20.67;;;;;;;-146.64;100.00;40582.31;5056923;28;20062;-74
2022/03/04 07:45:24;;;;;;;35.13;19.73;;;;;;;-146.64;100.00;40488.16;5056569;28;20029;-74
2022/03/04 07:47:49;;;;;;;41.00;21.20;;;;;;;-146.64;100.00;40484.06;5051522;28;20068;-74
2022/03/04 07:50:15;;;;;;;34.53;20.25;;;;;;;-146.64;100.00;40414.44;5056496;28;20047;-74
2022/03/04 07:52:41;;;;;;;33.47;19.52;;;;;;;-146.64;100.00;40361.22;5037743;28;20031;-74
2022/03/04 07:55:09;;;;;;;41.37;21.17;;;;;;;-146.64;100.00;40226.13;5048708;28;20062;-75
2022/03/04 07:57:35;;;;;;;39.50;20.63;;;;;;;-146.64;100.00;40332.56;5074156;28;20029;-74
2022/03/04 08:00:00;;;;;;;36.72;20.13;;;;;;;-146.64;100.00;40283.44;5056955;28;20062;-75
2022/03/04 08:02:26;;;;;;;44.97;21.58;;;;;;;-146.64;100.00;40265.00;5056550;28;20471;-74
2022/03/04 08:04:51;;;;;;;37.33;22.15;;;;;;;-146.64;100.00;40230.22;5036620;28;20107;-75
2022/03/04 08:07:17;;;;;;;48.47;20.45;;;;;;;-146.64;100.00;40146.28;5072093;28;20025;-75
2022/03/04 08:09:43;;;;;;;36.13;20.38;;;;;;;-146.64;100.00;40181.09;5026250;28;20087;-74
2022/03/04 08:12:09;;;;;;;36.50;19.63;;;;;;;-146.64;100.00;40172.91;5038804;28;20391;-74
2022/03/04 08:14:35;;;;;;;38.03;19.77;;;;;;;-146.64;100.00;40168.81;5054878;28;20028;-74
2022/03/04 08:17:00;;;;;;;36.53;20.45;;;;;;;-146.64;100.00;40164.72;5054207;28;20071;-75
2022/03/04 08:19:26;;;;;;;39.80;21.27;;;;;;;-146.64;100.00;40142.19;5055972;28;20039;-75
2022/03/04 08:21:51;;;;;;;36.35;20.23;;;;;;;-146.64;100.00;40013.22;5040236;28;20032;-76
2022/03/04 08:24:17;;;;;;;37.58;20.00;;;;;;;-146.64;100.00;39970.25;5066974;28;20044;-76
2022/03/04 08:26:42;;;;;;;36.70;20.30;;;;;;;-146.64;100.00;39984.56;5057271;28;20099;-75
2022/03/04 08:29:11;;;;;;;37.33;20.85;;;;;;;-146.64;100.00;39960.00;5053858;28;20040;-73
2022/03/04 08:31:37;;;;;;;44.55;19.00;;;;;;;-146.64;100.00;39906.78;5055313;28;20103;-77
2022/03/04 08:34:03;;;;;;;34.50;19.10;;;;;;;-146.64;100.00;39859.72;5055602;28;20028;-76
2022/03/04 08:36:29;;;;;;;39.83;20.97;;;;;;;-146.64;100.00;39853.56;5035126;28;20872;-75
2022/03/04 08:38:54;;;;;;;38.30;20.45;;;;;;;-146.64;100.00;39849.47;5036315;28;20029;-75
2022/03/04 08:41:20;;;;;;;36.38;20.55;;;;;;;-146.64;100.00;39831.06;5035618;28;20020;-75
2022/03/04 08:43:46;;;;;;;34.97;20.15;;;;;;;-146.64;100.00;39796.25;5051221;28;20399;-75
2022/03/04 08:46:13;;;;;;;34.35;19.65;;;;;;;-146.64;100.00;39763.50;5071397;28;20027;-75
2022/03/04 08:48:39;;;;;;;34.22;19.48;;;;;;;-146.64;100.00;39747.13;5053837;28;20032;-75
2022/03/04 08:51:05;;;;;;;38.35;21.15;;;;;;;-146.64;100.00;39783.97;5052627;28;20507;-76
2022/03/04 08:53:30;;;;;;;37.15;19.63;;;;;;;-146.64;100.00;39726.66;5053014;28;20118;-76
2022/03/04 08:55:56;;;;;;;39.08;20.45;;;;;;;-146.64;100.00;39726.66;5036198;28;20104;-76
2022/03/04 08:58:21;;;;;;;31.55;18.83;;;;;;;-146.64;100.00;39671.41;5053154;28;20588;-76
2022/03/04 09:00:53;;;;;;;36.00;20.90;;;;;;;-146.64;100.00;39722.56;5083590;28;20888;-74
2022/03/04 09:03:18;;;;;;;40.65;21.75;;;;;;;-146.64;100.00;39667.31;5065384;28;20036;-74
2022/03/04 09:05:44;;;;;;;40.15;20.27;;;;;;;-146.64;100.00;39689.81;5046806;28;20733;-74
2022/03/04 09:08:09;;;;;;;36.55;20.02;;;;;;;-146.64;100.00;39644.78;5065094;28;20119;-74
2022/03/04 09:10:35;;;;;;;43.17;20.67;;;;;;;-146.64;100.00;39663.22;5056245;28;20029;-75
2022/03/04 09:13:00;;;;;;;33.78;18.85;;;;;;;-146.64;100.00;39593.63;5048798;28;20068;-74
2022/03/04 09:15:26;;;;;;;35.20;21.50;;;;;;;-146.64;100.00;39657.06;5072487;28;20082;-75
2022/03/04 09:17:51;;;;;;;37.63;19.85;;;;;;;-146.64;100.00;39620.22;5066491;28;20859;-75
2022/03/04 09:20:19;;;;;;;37.22;20.55;;;;;;;-146.64;100.00;39567.00;5061598;28;20107;-75
2022/03/04 09:22:45;;;;;;;30.70;19.60;;;;;;;-146.64;100.00;39573.16;5062523;28;20090;-75
2022/03/04 09:25:11;;;;;;;38.20;20.20;;;;;;;-146.64;100.00;39489.25;5063107;28;20044;-75
2022/03/04 09:27:36;;;;;;;32.03;19.63;;;;;;;-146.64;100.00;39538.34;5045840;28;20025;-74
2022/03/04 09:30:02;;;;;;;33.95;20.70;;;;;;;-146.64;100.00;39476.97;5063535;28;21211;-74
2022/03/04 09:32:28;;;;;;;33.45;19.85;;;;;;;-146.64;100.00;39489.25;5060998;28;20025;-75
2022/03/04 09:34:53;;;;;;;30.38;18.70;;;;;;;-146.64;100.00;39479.00;5054906;28;20480;-75
2022/03/04 09:37:18;;;;;;;33.35;18.25;;;;;;;-146.64;100.00;39472.88;5063367;28;20388;-74
2022/03/04 09:39:44;;;;;;;39.97;20.92;;;;;;;-146.64;100.00;39460.59;5068608;28;20024;-75
2022/03/04 09:42:09;;;;;;;43.95;20.55;;;;;;;-146.64;100.00;39433.97;5084867;28;20158;-74
2022/03/04 09:44:34;;;;;;;36.17;20.10;;;;;;;-146.64;100.00;39419.66;5086258;28;20040;-75
2022/03/04 09:47:01;;;;;;;33.47;18.88;;;;;;;-146.64;96.67;39395.09;5079518;28;20103;-75
2022/03/04 09:49:35;;;;;;;32.65;19.38;;;;;;;-146.64;93.03;39329.59;5061875;28;20016;-75
2022/03/04 09:52:01;;;;;;;33.10;18.88;;;;;;;-146.64;92.18;39329.59;5054400;28;20035;-74
2022/03/04 09:54:30;;;;;;;30.60;19.08;;;;;;;-146.64;93.31;39317.31;5068740;28;20061;-75
2022/03/04 09:56:56;;;;;;;31.00;19.10;;;;;;;-146.64;93.85;39345.97;5052663;28;20032;-74
2022/03/04 09:59:22;;;;;;;32.58;19.77;;;;;;;-146.64;92.32;39335.75;5077967;28;20072;-74
2022/03/04 10:01:48;;;;;;;33.08;19.75;;;;;;;-146.64;91.48;39307.09;5078347;28;20032;-74
2022/03/04 10:04:13;;;;;;;39.58;21.02;;;;;;;-146.64;91.68;39296.84;5072245;28;20414;-74
2022/03/04 10:06:39;;;;;;;36.42;20.58;;;;;;;-146.64;89.33;39296.84;5052609;28;20508;-74
2022/03/04 10:09:04;;;;;;;34.55;19.15;;;;;;;-146.64;86.66;39245.69;5066167;28;20030;-74
2022/03/04 10:11:36;;;;;;;32.40;19.73;;;;;;;-146.64;87.68;39215.00;5050676;28;20029;-74
2022/03/04 10:14:09;;;;;;;40.70;20.60;;;;;;;-146.64;86.77;39204.75;5053825;28;20033;-74
2022/03/04 10:16:36;;;;;;;40.80;21.30;;;;;;;-146.64;85.85;39206.81;5068431;28;20112;-74
2022/03/04 10:19:18;;;;;;;38.65;20.33;;;;;;;-146.64;86.48;39206.81;5065940;28;20024;-74
2022/03/04 10:21:44;;;;;;;32.97;19.67;;;;;;;-146.64;84.27;39167.91;5045510;28;20632;-74
2022/03/04 10:24:09;;;;;;;30.77;19.10;;;;;;;-146.64;83.40;39149.50;5065577;28;20060;-74
2022/03/04 10:26:34;;;;;;;35.30;20.60;;;;;;;-146.64;84.14;39153.59;5058532;28;20512;-74
2022/03/04 10:29:09;;;;;;;32.65;20.60;;;;;;;-146.64;79.69;39104.47;5067013;28;20040;-74
2022/03/04 10:31:34;;;;;;;33.42;19.42;;;;;;;-146.64;80.32;39129.03;5060604;28;20051;-74
2022/03/04 10:34:07;;;;;;;30.88;19.05;;;;;;;-146.64;77.19;39075.84;5068787;28;20363;-74
2022/03/04 10:36:33;;;;;;;33.90;19.35;;;;;;;-146.64;78.45;39079.91;5058170;28;20066;-74
2022/03/04 10:39:08;;;;;;;38.20;18.98;;;;;;;-146.64;77.42;39059.47;5064220;28;20059;-74
2022/03/04 10:41:35;;;;;;;34.50;19.80;;;;;;;-146.64;74.60;39018.53;5059340;28;20016;-75
2022/03/04 10:44:04;;;;;;;34.70;20.77;;;;;;;-146.64;72.27;39010.34;5064407;28;20101;-74
2022/03/04 10:46:52;;;;;;;34.53;20.38;;;;;;;-146.64;71.19;38981.69;5037942;28;20381;-74
2022/03/04 10:49:22;;;;;;;;;;;;;;;-146.64;74.61;39006.25;5068657;28;20024;-74
2022/03/04 10:51:47;;;;;;;36.00;19.98;;;;;;;-146.64;74.79;38973.50;5061344;28;19923;-74